Deseret, Utah
Current Conditions -  °F | °C
As of 2:35 PM on Thursday 23 Oct 2014 (Local Time) from KDTA Reporting Station
Clear Clear  
Wind Chill: 75°   Ceiling: Unl
Heat Index: 75°   Visibility: 10mi
Dew Point: 29°   Wind: 10mph
Humidity: 18%   Direction: 200°SSW
Pressure: 30.1"   Gusts: 18mph
Location:  39.3657°N, 112.477°W
Report Text: KDTA 232035Z AUTO 20009G16KT 10SM CLR 24/M02 A3010 RMK AO1 T02381017
Loading
Personal Weather Stations






























Interactive Weather Map
Tropical Storm Tracking
New forecast layout! Learn more

10-Day Weather Forecast

Advertisements
Track Severe Weather on mobile